Time;durP1;ratioP1;P1;durP2;ratioP2;P2;SDS_P1;SDS_P2;PMS_P1;PMS_P2;Temp;Humidity;BMP_temperature;BMP_pressure;BME280_temperature;BME280_humidity;BME280_pressure;Samples;Min_cycle;Max_cycle;Signal;HPM_P1;HPM_P2
2023/07/17 00:01:07;;;;;;;15.00;8.50;;;;;;;19.43;93.86;98952.96;135633;1274;22526;-78
2023/07/17 00:04:17;;;;;;;11.90;9.50;;;;;;;19.39;93.62;98948.27;135669;1274;22526;-77
2023/07/17 00:07:20;;;;;;;17.50;11.60;;;;;;;19.31;93.89;98947.90;135647;1275;22729;-79
2023/07/17 00:10:22;;;;;;;55.50;27.30;;;;;;;19.26;94.36;98955.08;135638;1275;25395;-80
2023/07/17 00:13:25;;;;;;;66.10;39.00;;;;;;;19.22;95.00;98957.81;135641;1274;22537;-79
2023/07/17 00:16:27;;;;;;;25.50;16.50;;;;;;;19.15;95.00;98953.74;135650;1274;22533;-80
2023/07/17 00:19:32;;;;;;;30.00;20.90;;;;;;;19.04;95.78;98949.16;135623;1274;22547;-78
2023/07/17 00:22:35;;;;;;;14.40;11.40;;;;;;;18.97;96.94;98950.01;135654;1274;25398;-79
2023/07/17 00:25:37;;;;;;;10.90;9.90;;;;;;;18.95;98.01;98950.94;135711;1273;23323;-79
2023/07/17 00:28:40;;;;;;;10.70;9.10;;;;;;;18.90;98.58;98945.23;135653;1275;22531;-79
2023/07/17 00:31:42;;;;;;;10.60;9.20;;;;;;;18.83;99.12;98936.90;135668;1275;22640;-79
2023/07/17 00:34:45;;;;;;;10.90;9.00;;;;;;;18.75;99.97;98938.46;135681;1275;22636;-79
2023/07/17 00:37:47;;;;;;;15.20;10.00;;;;;;;18.70;100.00;98945.96;135641;1274;22545;-78
2023/07/17 00:40:49;;;;;;;11.50;9.40;;;;;;;18.70;100.00;98951.25;135650;1275;22541;-79
2023/07/17 00:43:52;;;;;;;12.00;9.10;;;;;;;18.69;100.00;98949.52;135684;1275;25259;-78
2023/07/17 00:46:54;;;;;;;11.60;8.60;;;;;;;18.64;100.00;98952.41;135660;1275;22541;-79
2023/07/17 00:49:57;;;;;;;10.80;8.30;;;;;;;18.63;100.00;98955.27;135634;1274;22529;-79
2023/07/17 00:52:59;;;;;;;11.90;8.40;;;;;;;18.60;100.00;98952.65;135662;1275;22549;-80
2023/07/17 00:56:01;;;;;;;9.80;8.50;;;;;;;18.55;100.00;98952.57;135646;1275;25425;-78
2023/07/17 00:59:05;;;;;;;10.60;8.20;;;;;;;18.49;100.00;98947.05;135638;1274;22876;-79
2023/07/17 01:02:08;;;;;;;9.80;8.70;;;;;;;18.41;100.00;98939.07;135627;1274;22555;-79
2023/07/17 01:05:10;;;;;;;10.90;8.10;;;;;;;18.35;100.00;98940.23;135654;1275;24211;-79
2023/07/17 01:08:13;;;;;;;8.60;7.70;;;;;;;18.31;100.00;98937.67;135688;1274;22569;-78
2023/07/17 01:11:15;;;;;;;9.20;8.20;;;;;;;18.30;100.00;98935.58;135665;1274;22534;-79
2023/07/17 01:14:17;;;;;;;8.90;8.10;;;;;;;18.26;100.00;98933.36;135633;1274;22482;-78
2023/07/17 01:17:20;;;;;;;9.00;8.00;;;;;;;18.28;100.00;98933.67;135660;1274;22538;-79
2023/07/17 01:20:22;;;;;;;11.40;7.80;;;;;;;18.27;100.00;98931.06;135718;1274;22582;-81
2023/07/17 01:23:25;;;;;;;11.40;7.40;;;;;;;18.22;100.00;98927.80;136058;1275;25929;-79
2023/07/17 01:26:27;;;;;;;8.50;7.60;;;;;;;18.17;100.00;98925.02;136168;1274;22482;-79
2023/07/17 01:29:30;;;;;;;9.70;7.70;;;;;;;18.14;100.00;98922.25;136212;1275;22563;-77
2023/07/17 01:32:32;;;;;;;8.10;7.40;;;;;;;18.14;100.00;98923.14;136887;1275;22881;-77
2023/07/17 01:35:35;;;;;;;7.80;7.20;;;;;;;18.14;100.00;98924.73;137012;1274;22528;-77
2023/07/17 01:38:37;;;;;;;8.00;7.30;;;;;;;18.14;100.00;98926.66;136908;1275;22577;-77
2023/07/17 01:41:40;;;;;;;8.80;7.80;;;;;;;18.11;100.00;98923.89;136257;1275;24218;-78
2023/07/17 01:44:42;;;;;;;8.00;7.10;;;;;;;18.04;100.00;98919.79;135900;1275;22691;-78
2023/07/17 01:47:45;;;;;;;11.50;7.40;;;;;;;18.02;100.00;98921.41;135794;1275;22520;-78
2023/07/17 01:50:47;;;;;;;8.40;7.40;;;;;;;18.00;100.00;98924.62;135776;1274;22541;-79
2023/07/17 01:53:50;;;;;;;8.90;7.90;;;;;;;17.98;100.00;98935.39;135638;1274;22557;-79
2023/07/17 01:56:52;;;;;;;8.10;7.40;;;;;;;17.99;100.00;98936.09;135664;1275;22546;-80
2023/07/17 01:59:55;;;;;;;8.30;7.60;;;;;;;17.96;100.00;98932.60;135717;1274;22552;-78
2023/07/17 02:02:57;;;;;;;8.00;7.30;;;;;;;17.90;100.00;98936.75;135604;1274;22555;-78
2023/07/17 02:06:00;;;;;;;9.50;8.00;;;;;;;17.85;100.00;98940.36;135566;1275;24974;-79
2023/07/17 02:09:04;;;;;;;12.50;11.30;;;;;;;17.76;100.00;98937.85;135580;1275;22990;-79
2023/07/17 02:12:06;;;;;;;;;;;;;;;17.71;100.00;98948.67;135600;1274;22535;-79
2023/07/17 02:15:09;;;;;;;11.40;7.90;;;;;;;17.70;100.00;98955.20;135475;1275;24298;-79
2023/07/17 02:18:11;;;;;;;10.00;7.80;;;;;;;17.70;100.00;98958.55;135624;1263;25408;-80
2023/07/17 02:21:14;;;;;;;9.10;8.30;;;;;;;17.68;100.00;98959.98;135599;1274;24282;-80
2023/07/17 02:24:16;;;;;;;8.50;7.70;;;;;;;17.67;100.00;98961.92;135664;1274;22531;-78
2023/07/17 02:27:19;;;;;;;19.80;8.30;;;;;;;17.59;100.00;98958.50;135626;1275;22640;-78
2023/07/17 02:30:21;;;;;;;9.00;8.00;;;;;;;17.56;100.00;98957.14;135614;1275;22654;-78
2023/07/17 02:33:24;;;;;;;8.10;7.30;;;;;;;17.53;100.00;98960.52;135591;1275;22630;-79
2023/07/17 02:36:26;;;;;;;9.40;7.30;;;;;;;17.53;100.00;98966.15;135654;1274;25454;-80
2023/07/17 02:39:29;;;;;;;35.60;11.00;;;;;;;17.52;100.00;98966.16;135590;1274;25391;-79
2023/07/17 02:42:31;;;;;;;49.10;10.90;;;;;;;17.52;100.00;98967.23;135595;1275;22539;-78
2023/07/17 02:45:34;;;;;;;9.60;8.30;;;;;;;17.55;100.00;98976.50;135550;1275;25256;-78
2023/07/17 02:48:36;;;;;;;9.70;8.40;;;;;;;17.61;100.00;98974.13;135678;1275;22534;-79
2023/07/17 02:51:38;;;;;;;41.70;10.90;;;;;;;17.67;100.00;98977.23;135657;1275;22530;-79
2023/07/17 02:54:41;;;;;;;13.60;9.30;;;;;;;17.74;100.00;98978.38;135649;1275;22643;-78
2023/07/17 02:57:43;;;;;;;11.10;9.00;;;;;;;17.83;100.00;98978.41;135631;1275;22557;-79
2023/07/17 03:00:46;;;;;;;9.30;8.40;;;;;;;17.90;100.00;98968.98;135631;1275;22538;-78
2023/07/17 03:03:48;;;;;;;8.70;7.90;;;;;;;17.93;100.00;98963.12;135700;1275;22633;-79
2023/07/17 03:06:55;;;;;;;8.20;7.30;;;;;;;17.96;100.00;98953.38;135633;1274;22552;-79
2023/07/17 03:09:58;;;;;;;9.40;8.40;;;;;;;17.98;100.00;98938.20;135639;1275;22643;-80
2023/07/17 03:13:00;;;;;;;10.40;7.80;;;;;;;18.03;100.00;98928.80;135613;1275;22533;-78
2023/07/17 03:16:03;;;;;;;9.60;8.70;;;;;;;18.13;100.00;98933.91;135518;1275;22537;-80
2023/07/17 03:19:05;;;;;;;9.20;8.20;;;;;;;18.26;100.00;98948.15;135430;1275;24673;-77
2023/07/17 03:22:08;;;;;;;11.60;10.00;;;;;;;18.38;100.00;98956.58;135469;1274;25020;-78
2023/07/17 03:25:10;;;;;;;18.20;11.40;;;;;;;18.46;100.00;98962.42;135422;1274;25380;-78
2023/07/17 03:28:13;;;;;;;13.70;9.10;;;;;;;18.56;100.00;98962.41;135397;1270;22536;-78
2023/07/17 03:31:15;;;;;;;11.70;9.70;;;;;;;18.65;100.00;98947.83;135277;1253;22949;-78
2023/07/17 03:34:17;;;;;;;10.60;7.70;;;;;;;18.72;100.00;98945.04;135417;1275;22533;-79
2023/07/17 03:37:20;;;;;;;186.30;19.80;;;;;;;18.80;100.00;98950.54;135408;1275;22549;-79
2023/07/17 03:40:23;;;;;;;14.10;8.20;;;;;;;18.88;100.00;98950.02;135376;1275;26010;-78
2023/07/17 03:43:25;;;;;;;11.00;8.80;;;;;;;18.94;100.00;98955.02;135410;1275;25431;-77
2023/07/17 03:46:28;;;;;;;11.40;9.40;;;;;;;19.01;100.00;98957.70;135115;1274;22548;-77
2023/07/17 03:49:30;;;;;;;17.90;13.50;;;;;;;19.11;100.00;98967.93;135291;1275;22511;-78
2023/07/17 03:52:32;;;;;;;14.80;11.40;;;;;;;19.23;100.00;98972.09;135303;1274;23625;-77
2023/07/17 03:55:35;;;;;;;14.30;11.40;;;;;;;19.42;100.00;98976.80;135238;1274;23096;-78
2023/07/17 03:58:37;;;;;;;15.30;11.10;;;;;;;19.62;100.00;98974.63;135039;1275;24196;-77
2023/07/17 04:01:40;;;;;;;12.10;10.80;;;;;;;19.76;100.00;98982.42;135170;1274;25387;-75
2023/07/17 04:04:43;;;;;;;11.60;10.30;;;;;;;19.88;100.00;98992.21;135154;1274;22658;-77
2023/07/17 04:07:45;;;;;;;13.00;11.10;;;;;;;20.02;100.00;98994.37;135195;1274;22539;-81
2023/07/17 04:10:48;;;;;;;12.20;11.10;;;;;;;20.12;100.00;98998.91;135326;1274;22534;-80
2023/07/17 04:13:52;;;;;;;12.20;10.80;;;;;;;20.19;100.00;99001.19;135244;1251;23009;-77
2023/07/17 04:16:54;;;;;;;16.30;12.00;;;;;;;20.27;100.00;99005.44;134914;1275;23019;-77
2023/07/17 04:19:57;;;;;;;15.20;12.20;;;;;;;20.29;100.00;99007.50;134998;1258;22589;-78
2023/07/17 04:22:59;;;;;;;14.80;13.00;;;;;;;20.31;100.00;99007.44;135013;1275;22986;-78
2023/07/17 04:26:02;;;;;;;15.10;13.50;;;;;;;20.35;100.00;99003.45;135097;1274;25365;-78
2023/07/17 04:29:06;;;;;;;17.60;12.70;;;;;;;20.41;100.00;99015.19;135179;1274;23418;-78
2023/07/17 04:32:09;;;;;;;;;;;;;;;20.43;100.00;99022.20;135321;1274;22504;-78
2023/07/17 04:35:11;;;;;;;19.10;12.70;;;;;;;20.47;100.00;99039.41;135363;1275;22549;-78
2023/07/17 04:38:13;;;;;;;15.70;12.00;;;;;;;20.53;100.00;99041.21;135050;1274;23537;-76
2023/07/17 04:41:17;;;;;;;17.00;12.60;;;;;;;20.60;100.00;99042.27;135100;1274;22904;-78
2023/07/17 04:44:20;;;;;;;;;;;;;;;20.71;100.00;99045.02;135309;1274;22666;-76
2023/07/17 04:47:22;;;;;;;15.60;10.80;;;;;;;20.82;100.00;99048.26;135241;1274;22638;-77
2023/07/17 04:50:26;;;;;;;11.90;10.20;;;;;;;20.99;100.00;99055.77;135203;1275;25229;-74
2023/07/17 04:53:28;;;;;;;14.80;10.30;;;;;;;21.17;100.00;99057.08;135220;1274;22640;-77
2023/07/17 04:56:31;;;;;;;10.80;9.80;;;;;;;21.26;100.00;99059.32;135038;1274;22533;-77
2023/07/17 04:59:33;;;;;;;12.60;11.50;;;;;;;21.33;100.00;99052.58;135061;1275;22572;-80
2023/07/17 05:02:36;;;;;;;14.40;10.90;;;;;;;21.34;100.00;99042.46;135398;1274;22557;-82
2023/07/17 05:05:39;;;;;;;22.50;15.00;;;;;;;21.32;100.00;99035.42;136331;1275;25366;-80
2023/07/17 05:08:42;;;;;;;130.10;33.50;;;;;;;21.48;100.00;99039.73;135419;1274;22545;-80
2023/07/17 05:11:45;;;;;;;56.10;12.90;;;;;;;21.81;100.00;99038.77;135439;1274;24215;-78
2023/07/17 05:14:47;;;;;;;31.40;12.00;;;;;;;22.25;100.00;99034.23;135516;1274;22558;-79
2023/07/17 05:17:50;;;;;;;78.20;14.50;;;;;;;22.58;100.00;99025.55;135587;1274;25411;-82
2023/07/17 05:20:52;;;;;;;32.90;11.40;;;;;;;22.78;100.00;99026.46;135633;1275;22839;-80
2023/07/17 05:23:58;;;;;;;63.00;13.20;;;;;;;22.90;100.00;99017.02;135417;1274;23166;-79
2023/07/17 05:27:02;;;;;;;29.90;10.30;;;;;;;22.78;100.00;99011.56;135614;1275;23272;-82
2023/07/17 05:30:05;;;;;;;16.70;8.70;;;;;;;22.83;100.00;99014.58;135548;1274;22536;-80
2023/07/17 05:33:07;;;;;;;8.80;8.00;;;;;;;22.95;100.00;99013.46;135724;1275;22550;-80
2023/07/17 05:36:10;;;;;;;12.40;8.50;;;;;;;23.02;100.00;99019.63;135671;1275;23639;-81
2023/07/17 05:39:12;;;;;;;10.10;8.80;;;;;;;23.03;100.00;99037.15;135560;1275;22582;-79
2023/07/17 05:42:15;;;;;;;11.60;8.50;;;;;;;23.03;100.00;99059.52;135488;1274;23034;-80
2023/07/17 05:45:17;;;;;;;13.70;8.10;;;;;;;23.04;100.00;99071.19;135663;1274;22537;-79
2023/07/17 05:48:20;;;;;;;23.00;9.70;;;;;;;23.08;100.00;99081.88;135546;1275;22486;-79
2023/07/17 05:51:22;;;;;;;13.60;9.40;;;;;;;23.12;100.00;99095.56;135682;1274;25970;-80
2023/07/17 05:54:25;;;;;;;12.40;9.70;;;;;;;23.12;100.00;99113.16;135678;1275;25300;-80
2023/07/17 05:57:27;;;;;;;17.30;10.20;;;;;;;22.81;100.00;99147.73;135539;1274;25248;-80
2023/07/17 06:00:30;;;;;;;11.50;10.00;;;;;;;22.44;100.00;99177.42;136785;1274;22586;-80
2023/07/17 06:03:33;;;;;;;11.00;9.90;;;;;;;22.17;100.00;99177.73;135358;1273;22602;-82
2023/07/17 06:06:35;;;;;;;14.70;8.90;;;;;;;21.81;100.00;99186.51;135453;1275;25287;-81
2023/07/17 06:09:38;;;;;;;8.50;7.80;;;;;;;21.50;100.00;99189.29;135504;1274;22646;-81
2023/07/17 06:12:40;;;;;;;12.20;8.20;;;;;;;21.21;100.00;99198.19;135488;1274;22542;-81
2023/07/17 06:15:43;;;;;;;11.50;9.60;;;;;;;20.88;100.00;99202.34;135628;1275;23154;-81
2023/07/17 06:18:45;;;;;;;31.20;20.80;;;;;;;20.67;100.00;99206.54;135664;1267;22534;-80
2023/07/17 06:21:48;;;;;;;9.20;7.90;;;;;;;20.53;100.00;99209.00;135633;1260;25611;-83
2023/07/17 06:24:51;;;;;;;14.80;9.10;;;;;;;20.36;100.00;99220.64;135742;1274;22634;-80
2023/07/17 06:27:53;;;;;;;11.10;8.80;;;;;;;20.28;100.00;99224.53;135748;1251;23252;-79
2023/07/17 06:30:55;;;;;;;14.60;8.60;;;;;;;20.17;100.00;99236.60;135621;1274;23749;-79
2023/07/17 06:34:00;;;;;;;10.10;8.30;;;;;;;20.19;100.00;99236.04;135702;1267;23390;-79
2023/07/17 06:37:03;;;;;;;20.00;17.70;;;;;;;20.17;100.00;99231.13;135936;1274;22550;-79
2023/07/17 06:40:06;;;;;;;14.00;9.50;;;;;;;20.24;100.00;99229.56;135724;1253;22604;-78
2023/07/17 06:43:08;;;;;;;37.20;33.40;;;;;;;20.45;100.00;99227.72;136275;1274;22579;-78
2023/07/17 06:46:11;;;;;;;18.30;14.30;;;;;;;20.51;100.00;99217.16;136202;1274;22555;-77
2023/07/17 06:49:13;;;;;;;16.00;10.40;;;;;;;20.59;100.00;99205.30;136167;1274;22899;-77
2023/07/17 06:52:16;;;;;;;13.00;10.20;;;;;;;20.79;100.00;99183.80;135682;1263;22541;-76
2023/07/17 06:55:19;;;;;;;139.90;109.10;;;;;;;21.12;100.00;99171.88;135822;1274;22534;-78
2023/07/17 06:58:24;;;;;;;23.80;17.60;;;;;;;21.34;100.00;99149.70;135515;1262;22521;-77
2023/07/17 07:01:27;;;;;;;14.10;10.40;;;;;;;21.44;100.00;99124.84;135292;1274;25319;-76
2023/07/17 07:04:29;;;;;;;9.80;8.10;;;;;;;21.49;100.00;99081.16;135103;1274;22896;-78
2023/07/17 07:07:32;;;;;;;13.80;8.70;;;;;;;21.50;100.00;99020.20;135100;1274;22559;-77
2023/07/17 07:10:34;;;;;;;11.40;8.20;;;;;;;21.45;100.00;99000.89;135094;1267;22558;-78
2023/07/17 07:13:37;;;;;;;9.90;7.10;;;;;;;21.37;100.00;98982.54;135202;1274;22649;-80
2023/07/17 07:16:41;;;;;;;8.40;6.90;;;;;;;21.22;100.00;98969.52;135292;1274;22548;-78
2023/07/17 07:19:43;;;;;;;8.80;6.90;;;;;;;21.19;100.00;98946.76;135314;1274;25219;-79
2023/07/17 07:22:46;;;;;;;7.50;6.20;;;;;;;21.25;100.00;98939.15;135310;1274;22479;-79
2023/07/17 07:25:48;;;;;;;7.70;6.80;;;;;;;21.20;100.00;98940.00;135315;1274;24456;-79
2023/07/17 07:28:51;;;;;;;8.10;7.10;;;;;;;21.13;100.00;98948.70;135428;1275;22545;-80
2023/07/17 07:31:53;;;;;;;8.20;6.40;;;;;;;21.11;100.00;98972.46;135522;1275;22533;-79
2023/07/17 07:34:56;;;;;;;10.10;6.60;;;;;;;20.79;100.00;98984.13;135378;1274;22537;-79
2023/07/17 07:37:59;;;;;;;906.40;381.10;;;;;;;20.46;100.00;98989.44;135424;1274;21787;-79
2023/07/17 07:41:02;;;;;;;23.60;11.20;;;;;;;20.54;100.00;98984.44;135147;1275;24143;-78
2023/07/17 07:44:05;;;;;;;9.60;7.00;;;;;;;20.69;100.00;98974.67;135171;1274;23001;-80
2023/07/17 07:47:07;;;;;;;8.20;7.20;;;;;;;21.06;100.00;98966.41;135252;1274;22580;-80
2023/07/17 07:50:10;;;;;;;13.50;7.00;;;;;;;21.17;100.00;98975.48;135354;1274;22886;-80
2023/07/17 07:53:12;;;;;;;8.40;6.80;;;;;;;20.84;100.00;98976.02;135483;1274;22522;-78
2023/07/17 07:56:17;;;;;;;7.00;6.30;;;;;;;20.60;100.00;98984.65;135506;1274;23218;-79
2023/07/17 07:59:20;;;;;;;9.10;7.50;;;;;;;20.84;100.00;98993.73;135368;1275;23209;-78
2023/07/17 08:02:23;;;;;;;10.70;7.90;;;;;;;21.18;100.00;98986.08;135332;1274;22520;-79
2023/07/17 08:05:26;;;;;;;6.70;6.10;;;;;;;21.50;100.00;98990.27;135474;1275;22547;-78
2023/07/17 08:08:28;;;;;;;8.70;7.50;;;;;;;21.82;100.00;98995.52;135293;1275;23071;-81
2023/07/17 08:11:31;;;;;;;14.70;8.50;;;;;;;21.81;100.00;99002.64;135366;1274;22540;-79
2023/07/17 08:14:33;;;;;;;7.50;6.60;;;;;;;22.05;100.00;99006.88;135335;1274;22582;-81
2023/07/17 08:17:36;;;;;;;7.40;6.60;;;;;;;21.86;100.00;99016.14;135419;1274;22579;-79
2023/07/17 08:20:38;;;;;;;11.50;7.40;;;;;;;21.89;100.00;99019.39;135566;1274;22681;-79
2023/07/17 08:23:41;;;;;;;10.30;7.40;;;;;;;21.93;100.00;99018.94;135704;1275;22622;-80
2023/07/17 08:26:44;;;;;;;11.80;7.50;;;;;;;21.90;100.00;99025.41;135693;1274;22634;-79
2023/07/17 08:29:46;;;;;;;9.20;7.00;;;;;;;22.26;100.00;99032.62;135684;1272;22554;-82
2023/07/17 08:32:49;;;;;;;7.30;6.60;;;;;;;22.57;100.00;99026.27;135650;1274;22541;-78
2023/07/17 08:35:51;;;;;;;11.30;7.70;;;;;;;22.82;100.00;99033.09;135905;1274;22603;-79
2023/07/17 08:38:54;;;;;;;15.30;7.10;;;;;;;23.09;100.00;99030.38;135451;1274;22568;-80
2023/07/17 08:42:00;;;;;;;11.60;8.70;;;;;;;23.26;100.00;99022.99;135693;1274;22549;-79
2023/07/17 08:45:02;;;;;;;12.00;10.20;;;;;;;23.45;100.00;99016.80;135628;1274;22798;-79
2023/07/17 08:48:05;;;;;;;10.00;8.60;;;;;;;23.60;100.00;99022.50;135555;1274;25473;-79
2023/07/17 08:51:08;;;;;;;12.40;8.90;;;;;;;23.51;100.00;99026.53;135486;1274;22546;-79
2023/07/17 08:54:12;;;;;;;9.00;6.90;;;;;;;23.62;100.00;99034.48;135693;1274;22592;-79
2023/07/17 08:57:14;;;;;;;8.90;7.70;;;;;;;23.62;100.00;99038.94;135682;1274;22543;-80
2023/07/17 09:00:18;;;;;;;13.40;9.20;;;;;;;23.45;100.00;99034.91;135559;1274;22570;-79
2023/07/17 09:03:20;;;;;;;12.70;7.30;;;;;;;23.28;100.00;99038.18;135529;1274;22539;-79
2023/07/17 09:06:23;;;;;;;9.90;6.70;;;;;;;23.35;100.00;99043.44;135606;1274;23432;-81
2023/07/17 09:09:25;;;;;;;7.10;6.30;;;;;;;23.47;100.00;99041.60;135652;1274;22619;-83
2023/07/17 09:12:28;;;;;;;12.50;10.70;;;;;;;23.63;100.00;99042.62;135308;1274;22455;-80
2023/07/17 09:15:31;;;;;;;8.90;7.80;;;;;;;23.78;100.00;99044.54;135318;1274;22593;-80
2023/07/17 09:18:33;;;;;;;8.20;6.90;;;;;;;23.82;100.00;99046.69;135235;1274;22943;-80
2023/07/17 09:21:36;;;;;;;34.50;31.00;;;;;;;23.72;100.00;99051.52;135382;1274;22983;-80
2023/07/17 09:24:38;;;;;;;7.50;6.70;;;;;;;23.75;100.00;99049.45;134972;1275;22542;-80
2023/07/17 09:27:41;;;;;;;8.40;7.10;;;;;;;23.64;100.00;99051.64;134972;1263;21753;-81
2023/07/17 09:30:43;;;;;;;11.20;7.30;;;;;;;23.62;100.00;99051.04;135108;1272;23043;-79
2023/07/17 09:33:46;;;;;;;167.70;129.60;;;;;;;23.60;100.00;99052.70;135028;1274;22580;-79
2023/07/17 09:36:48;;;;;;;9.40;7.00;;;;;;;23.66;100.00;99046.98;135159;1274;23100;-80
2023/07/17 09:39:51;;;;;;;12.50;6.50;;;;;;;23.64;100.00;99042.41;135239;1275;24388;-77
2023/07/17 09:42:53;;;;;;;7.90;7.20;;;;;;;23.77;100.00;99042.80;135229;1271;23021;-78
2023/07/17 09:45:56;;;;;;;9.50;6.60;;;;;;;23.91;100.00;99040.11;135550;1274;22557;-79
2023/07/17 09:49:00;;;;;;;;;;;;;;;24.01;100.00;99036.33;135446;1274;22587;-81
2023/07/17 09:52:02;;;;;;;49.40;40.00;;;;;;;23.94;100.00;99033.79;135640;1274;22545;-78
2023/07/17 09:55:05;;;;;;;13.40;9.30;;;;;;;24.08;100.00;99035.89;135608;1274;22539;-80
2023/07/17 09:58:08;;;;;;;8.80;6.10;;;;;;;24.08;100.00;99032.50;135625;1274;24134;-82
2023/07/17 10:01:10;;;;;;;6.90;6.20;;;;;;;23.95;100.00;99037.64;135634;1274;22646;-79
2023/07/17 10:04:13;;;;;;;11.10;6.70;;;;;;;23.87;100.00;99040.80;135451;1274;25336;-80
2023/07/17 10:07:16;;;;;;;9.90;7.70;;;;;;;23.86;100.00;99043.54;135781;1274;24298;-81
2023/07/17 10:10:18;;;;;;;9.60;6.60;;;;;;;23.92;100.00;99051.13;135755;1275;23292;-80
2023/07/17 10:13:20;;;;;;;68.80;9.80;;;;;;;24.03;100.00;99050.14;135491;1274;22699;-80
2023/07/17 10:16:24;;;;;;;9.80;7.70;;;;;;;24.32;100.00;99043.70;135433;1267;22551;-82
2023/07/17 10:19:26;;;;;;;11.10;8.10;;;;;;;24.43;100.00;99041.63;135670;1275;22530;-81
2023/07/17 10:22:30;;;;;;;14.10;11.00;;;;;;;24.38;100.00;99046.28;136292;1274;22578;-81
2023/07/17 10:25:33;;;;;;;62.50;54.80;;;;;;;24.58;100.00;99043.30;136607;1275;24276;-82
2023/07/17 10:28:35;;;;;;;48.60;35.50;;;;;;;24.71;100.00;99042.23;136681;1274;22073;-80
2023/07/17 10:31:38;;;;;;;7.90;6.60;;;;;;;24.67;100.00;99037.42;135613;1274;24211;-79
2023/07/17 10:34:40;;;;;;;8.30;6.50;;;;;;;24.65;100.00;99033.23;135583;1275;22611;-80
2023/07/17 10:37:42;;;;;;;8.90;6.80;;;;;;;24.97;100.00;99023.51;135557;1274;24567;-79
2023/07/17 10:40:45;;;;;;;10.90;7.60;;;;;;;25.55;100.00;99019.88;135636;1275;22632;-79
2023/07/17 10:43:48;;;;;;;7.30;6.60;;;;;;;25.38;100.00;99014.77;135408;1274;22628;-81
2023/07/17 10:46:50;;;;;;;17.50;7.60;;;;;;;25.11;100.00;99015.96;136418;1274;22578;-79
2023/07/17 10:49:53;;;;;;;9.10;7.80;;;;;;;25.26;100.00;99014.27;134982;1275;23504;-78
2023/07/17 10:52:57;;;;;;;11.70;7.10;;;;;;;25.27;100.00;99014.37;135236;1274;22658;-79
2023/07/17 10:55:59;;;;;;;53.20;42.50;;;;;;;25.30;100.00;99012.11;135644;1274;22910;-80
2023/07/17 10:59:02;;;;;;;7.80;7.10;;;;;;;25.35;100.00;99013.50;135559;1274;25894;-82
2023/07/17 11:02:05;;;;;;;8.20;7.10;;;;;;;25.40;100.00;99015.39;135656;1274;22455;-80
2023/07/17 11:05:08;;;;;;;23.90;7.90;;;;;;;25.43;100.00;99009.02;135421;1274;24231;-80
2023/07/17 11:08:11;;;;;;;35.90;8.70;;;;;;;25.47;100.00;99014.00;135606;1275;23099;-79
2023/07/17 11:11:14;;;;;;;9.40;7.70;;;;;;;25.50;100.00;99017.81;135534;1274;22989;-80
2023/07/17 11:14:18;;;;;;;10.60;7.50;;;;;;;25.34;100.00;99021.34;135693;1274;23160;-79
2023/07/17 11:17:20;;;;;;;10.40;7.30;;;;;;;25.09;100.00;99020.33;135600;1274;22545;-80
2023/07/17 11:20:23;;;;;;;7.50;6.40;;;;;;;24.98;100.00;99019.73;135464;1274;24225;-80
2023/07/17 11:23:25;;;;;;;21.20;9.00;;;;;;;24.83;100.00;99026.80;136392;1274;22675;-82
2023/07/17 11:26:28;;;;;;;16.30;9.90;;;;;;;24.58;100.00;99027.70;136469;1274;22723;-78
2023/07/17 11:29:31;;;;;;;14.30;10.80;;;;;;;24.47;100.00;99024.92;136117;1274;308128;-82
2023/07/17 11:32:33;;;;;;;22.70;11.50;;;;;;;24.28;100.00;99022.14;136447;1274;25923;-80
2023/07/17 11:35:38;;;;;;;12.40;9.40;;;;;;;24.20;100.00;99012.30;135607;1275;24954;-78
2023/07/17 11:38:41;;;;;;;153.00;136.70;;;;;;;24.27;100.00;99012.75;135669;1275;22479;-79
2023/07/17 11:41:44;;;;;;;11.40;8.30;;;;;;;24.18;100.00;99019.66;135701;1274;23158;-77
2023/07/17 11:44:46;;;;;;;31.10;15.90;;;;;;;24.18;100.00;99027.33;135686;1275;22533;-79
2023/07/17 11:47:49;;;;;;;17.70;8.50;;;;;;;24.10;100.00;99023.00;135762;1274;22833;-80
2023/07/17 11:50:51;;;;;;;9.00;8.20;;;;;;;24.11;100.00;99018.34;136166;1275;22478;-78
2023/07/17 11:53:54;;;;;;;12.60;10.60;;;;;;;24.00;100.00;99018.08;136048;1274;22596;-81
2023/07/17 11:57:02;;;;;;;12.40;11.10;;;;;;;23.79;100.00;99015.90;136925;1269;22555;-79
2023/07/17 12:00:05;;;;;;;14.00;9.30;;;;;;;23.86;100.00;99014.56;135696;1275;22701;-79
2023/07/17 12:03:08;;;;;;;80.10;27.30;;;;;;;23.89;100.00;99022.59;135658;1261;22575;-79
2023/07/17 12:06:10;;;;;;;18.70;9.80;;;;;;;23.89;100.00;99035.77;135355;1275;22529;-79
2023/07/17 12:09:13;;;;;;;16.00;8.90;;;;;;;23.88;100.00;99037.75;135110;1274;22543;-77
2023/07/17 12:12:15;;;;;;;17.10;8.30;;;;;;;23.85;100.00;99032.73;135108;1274;22565;-79
2023/07/17 12:15:18;;;;;;;25.90;8.80;;;;;;;23.82;100.00;99038.88;135178;1275;22567;-80
2023/07/17 12:18:21;;;;;;;12.10;8.00;;;;;;;23.68;100.00;99037.65;135120;1274;22685;-83
2023/07/17 12:21:24;;;;;;;279.00;189.80;;;;;;;23.49;100.00;99034.59;136290;1274;25300;-83
2023/07/17 12:24:27;;;;;;;13.10;8.20;;;;;;;23.45;100.00;99032.98;136465;1259;25230;-80
2023/07/17 12:27:30;;;;;;;13.20;9.20;;;;;;;23.39;100.00;99030.86;136477;1274;22550;-80
2023/07/17 12:30:32;;;;;;;13.40;10.20;;;;;;;23.36;100.00;99026.52;136403;1274;22556;-80
2023/07/17 12:33:35;;;;;;;44.00;39.40;;;;;;;23.34;100.00;99025.35;136559;1274;24497;-80
2023/07/17 12:36:37;;;;;;;12.20;9.80;;;;;;;23.48;100.00;99022.55;136424;1275;22552;-79
2023/07/17 12:39:45;;;;;;;12.50;8.50;;;;;;;23.63;100.00;99023.25;137527;1275;22047;-80
2023/07/17 12:42:47;;;;;;;9.70;8.70;;;;;;;23.68;100.00;99011.16;136754;1275;23064;-81
2023/07/17 12:45:50;;;;;;;13.80;8.50;;;;;;;23.70;100.00;98998.67;136455;1274;22551;-81
2023/07/17 12:48:53;;;;;;;96.20;73.80;;;;;;;23.63;100.00;98987.40;136507;1275;23210;-80
2023/07/17 12:51:56;;;;;;;17.70;16.00;;;;;;;23.61;100.00;98982.30;136324;1274;22636;-79
2023/07/17 12:54:58;;;;;;;17.90;15.50;;;;;;;23.65;100.00;98971.32;136485;1274;22572;-80
2023/07/17 12:58:02;;;;;;;9.30;8.50;;;;;;;23.76;100.00;98965.35;135533;1275;22559;-80
2023/07/17 13:01:13;;;;;;;10.90;9.50;;;;;;;23.74;100.00;98967.93;136380;1275;22999;-78
2023/07/17 13:04:16;;;;;;;302.60;231.90;;;;;;;23.72;100.00;98971.05;135661;1275;23725;-79
2023/07/17 13:07:18;;;;;;;27.30;13.80;;;;;;;23.71;100.00;98973.58;136225;1274;22904;-79
2023/07/17 13:10:21;;;;;;;18.70;9.20;;;;;;;23.67;100.00;98990.60;136609;1275;22598;-79
2023/07/17 13:13:24;;;;;;;29.80;18.50;;;;;;;23.58;100.00;98991.50;136462;1275;22602;-80
2023/07/17 13:16:26;;;;;;;19.10;10.90;;;;;;;23.51;100.00;98974.85;136516;1274;22616;-79
2023/07/17 13:19:29;;;;;;;14.30;10.00;;;;;;;23.43;100.00;98961.27;135923;1275;23053;-80
2023/07/17 13:22:32;;;;;;;10.90;9.60;;;;;;;23.50;100.00;98950.73;136712;1274;22524;-80
2023/07/17 13:25:37;;;;;;;15.40;9.60;;;;;;;23.52;100.00;98953.85;136695;1274;25252;-80
2023/07/17 13:28:42;;;;;;;9.40;8.50;;;;;;;23.52;100.00;98950.48;137009;1274;22563;-81
2023/07/17 13:31:45;;;;;;;11.00;8.30;;;;;;;23.52;100.00;98949.42;136734;1274;24007;-80
2023/07/17 13:34:48;;;;;;;10.00;8.00;;;;;;;23.60;100.00;98948.79;136601;1274;22518;-81
2023/07/17 13:37:52;;;;;;;13.30;9.00;;;;;;;23.63;100.00;98952.05;136606;1274;22543;-80
2023/07/17 13:41:01;;;;;;;12.00;8.30;;;;;;;23.68;100.00;98956.65;136441;1274;22839;-82
2023/07/17 13:44:13;;;;;;;11.40;8.80;;;;;;;23.69;100.00;98968.67;136206;1274;22554;-81
2023/07/17 13:47:32;;;;;;;10.10;8.30;;;;;;;23.66;100.00;98975.91;136385;1275;22538;-80
2023/07/17 13:50:34;;;;;;;13.80;9.00;;;;;;;23.57;100.00;98986.18;136401;1274;22551;-79